createdAt,value
2022-09-01T00:01:52.047Z,12.57
2022-09-01T00:04:27.044Z,12.45
2022-09-01T00:06:55.213Z,12.44
2022-09-01T00:09:23.079Z,12.39
2022-09-01T00:11:53.388Z,12.36
2022-09-01T00:14:29.567Z,12.40
2022-09-01T00:16:58.748Z,12.39
2022-09-01T00:19:25.449Z,12.39
2022-09-01T00:21:52.047Z,12.37
2022-09-01T00:24:19.520Z,12.33
2022-09-01T00:26:47.057Z,12.31
2022-09-01T00:29:13.880Z,12.27
2022-09-01T00:31:41.230Z,12.25
2022-09-01T00:34:08.438Z,12.21
2022-09-01T00:36:35.110Z,12.15
2022-09-01T00:39:02.218Z,12.09
2022-09-01T00:41:30.908Z,12.07
2022-09-01T00:44:00.549Z,12.06
2022-09-01T00:46:32.413Z,12.06
2022-09-01T00:49:02.880Z,12.08
2022-09-01T00:51:33.331Z,12.02
2022-09-01T00:54:01.608Z,11.94
2022-09-01T00:56:30.033Z,11.92
2022-09-01T00:58:57.342Z,11.92
2022-09-01T01:01:24.063Z,11.88
2022-09-01T01:03:50.788Z,11.85
2022-09-01T01:06:20.047Z,11.84
2022-09-01T01:08:58.924Z,11.83
2022-09-01T01:11:28.452Z,11.83
2022-09-01T01:14:10.451Z,11.70
2022-09-01T01:16:37.276Z,11.58
2022-09-01T01:19:04.854Z,11.52
2022-09-01T01:22:01.317Z,11.50
2022-09-01T01:24:32.458Z,11.44
2022-09-01T01:27:01.846Z,11.42
2022-09-01T01:29:33.780Z,11.41
2022-09-01T01:32:02.261Z,11.38
2022-09-01T01:34:28.875Z,11.35
2022-09-01T01:37:00.549Z,11.29
2022-09-01T01:39:27.204Z,11.27
2022-09-01T01:41:55.776Z,11.25
2022-09-01T01:44:27.994Z,11.23
2022-09-01T01:46:57.377Z,11.19
2022-09-01T01:49:27.598Z,11.13
2022-09-01T01:51:56.454Z,11.09
2022-09-01T01:54:25.899Z,11.04
2022-09-01T01:56:52.585Z,11.01
2022-09-01T01:59:19.617Z,11.00
2022-09-01T02:01:51.360Z,11.01
2022-09-01T02:04:20.581Z,10.98
2022-09-01T02:06:48.777Z,10.96
2022-09-01T02:09:17.996Z,10.93
2022-09-01T02:11:45.648Z,10.88
2022-09-01T02:14:13.562Z,10.85
2022-09-01T02:16:40.922Z,10.83
2022-09-01T02:19:10.043Z,10.78
2022-09-01T02:21:36.889Z,10.74
2022-09-01T02:24:05.947Z,10.71
2022-09-01T02:26:39.608Z,10.70
2022-09-01T02:29:17.951Z,10.65
2022-09-01T02:31:46.883Z,10.58
2022-09-01T02:34:17.142Z,10.57
2022-09-01T02:36:49.427Z,10.55
2022-09-01T02:39:18.892Z,10.54
2022-09-01T02:41:45.384Z,10.45
2022-09-01T02:44:12.145Z,10.41
2022-09-01T02:46:44.683Z,10.39
2022-09-01T02:49:15.252Z,10.38
2022-09-01T02:51:48.318Z,10.38
2022-09-01T02:54:19.087Z,10.38
2022-09-01T02:56:49.937Z,10.34
2022-09-01T02:59:17.701Z,10.32
2022-09-01T03:01:47.535Z,10.33
2022-09-01T03:04:14.579Z,10.29
2022-09-01T03:06:42.252Z,10.25
2022-09-01T03:09:12.419Z,10.22
2022-09-01T03:11:44.615Z,10.18
2022-09-01T03:14:12.345Z,10.16
2022-09-01T03:16:40.059Z,10.14
2022-09-01T03:19:09.031Z,10.12
2022-09-01T03:21:37.292Z,10.10
2022-09-01T03:24:04.481Z,10.09
2022-09-01T03:26:31.433Z,10.11
2022-09-01T03:28:58.821Z,10.08
2022-09-01T03:31:29.075Z,10.07
2022-09-01T03:33:58.301Z,10.02
2022-09-01T03:36:25.736Z,9.98
2022-09-01T03:38:53.258Z,9.93
2022-09-01T03:41:25.042Z,9.90
2022-09-01T03:43:55.101Z,9.89
2022-09-01T03:46:22.632Z,9.85
2022-09-01T03:48:52.000Z,9.84
2022-09-01T03:51:22.943Z,9.82
2022-09-01T03:53:54.548Z,9.81
2022-09-01T03:56:24.145Z,9.79
2022-09-01T03:58:52.149Z,9.77
2022-09-01T04:01:19.818Z,9.74
2022-09-01T04:03:51.310Z,9.72
2022-09-01T04:06:23.953Z,9.73
2022-09-01T04:08:53.921Z,9.67
2022-09-01T04:11:24.313Z,9.65
2022-09-01T04:13:52.371Z,9.66
2022-09-01T04:16:45.933Z,9.63
2022-09-01T04:19:20.839Z,9.58
2022-09-01T04:21:53.729Z,9.59
2022-09-01T04:24:23.925Z,9.57
2022-09-01T04:26:52.620Z,9.56
2022-09-01T04:29:27.201Z,9.54
2022-09-01T04:31:55.421Z,9.53
2022-09-01T04:34:24.187Z,9.53
2022-09-01T04:36:54.616Z,9.49
2022-09-01T04:39:22.410Z,9.46
2022-09-01T04:41:51.171Z,9.45
2022-09-01T04:44:19.212Z,9.44
2022-09-01T04:46:48.325Z,9.43
2022-09-01T04:49:19.674Z,9.42
2022-09-01T04:54:14.836Z,9.38
2022-09-01T04:56:43.483Z,9.37
2022-09-01T04:59:12.005Z,9.32
2022-09-01T05:01:43.551Z,9.31
2022-09-01T05:04:12.754Z,9.31
2022-09-01T05:06:42.507Z,9.32
2022-09-01T05:09:11.806Z,9.33
2022-09-01T05:11:41.284Z,9.36
2022-09-01T05:14:07.797Z,9.29
2022-09-01T05:16:36.300Z,9.29
2022-09-01T05:19:03.513Z,9.35
2022-09-01T05:21:30.126Z,9.36
2022-09-01T05:24:01.116Z,9.41
2022-09-01T05:26:31.165Z,9.47
2022-09-01T05:29:04.096Z,9.49
2022-09-01T05:31:37.763Z,9.52
2022-09-01T05:34:07.981Z,9.59
2022-09-01T05:36:34.724Z,9.64
2022-09-01T05:39:02.138Z,9.66
2022-09-01T05:41:29.085Z,9.68
2022-09-01T05:44:00.300Z,9.73
2022-09-01T05:46:28.300Z,9.79
2022-09-01T05:48:55.905Z,9.85
2022-09-01T05:51:43.826Z,9.88
2022-09-01T05:54:12.116Z,9.88
2022-09-01T05:56:43.272Z,9.93
2022-09-01T05:59:27.098Z,9.97
2022-09-01T06:01:55.074Z,10.02
2022-09-01T06:04:24.830Z,10.08
2022-09-01T06:07:08.513Z,10.15
2022-09-01T06:09:38.729Z,10.22
2022-09-01T06:12:06.729Z,10.31
2022-09-01T06:14:33.771Z,10.41
2022-09-01T06:17:01.068Z,10.49
2022-09-01T06:19:28.588Z,10.66
2022-09-01T06:21:55.694Z,10.77
2022-09-01T06:24:22.271Z,11.00
2022-09-01T06:26:48.850Z,11.27
2022-09-01T06:29:15.743Z,11.48
2022-09-01T06:31:43.498Z,11.68
2022-09-01T06:34:17.727Z,11.91
2022-09-01T06:36:46.693Z,12.17
2022-09-01T06:39:19.907Z,12.25
2022-09-01T06:41:53.257Z,12.44
2022-09-01T06:44:23.333Z,12.66
2022-09-01T06:46:52.331Z,12.84
2022-09-01T06:49:21.359Z,12.93
2022-09-01T06:51:51.839Z,13.02
2022-09-01T06:54:21.160Z,13.15
2022-09-01T06:56:51.443Z,13.33
2022-09-01T06:59:19.985Z,13.53
2022-09-01T07:01:48.990Z,13.74
2022-09-01T07:04:21.482Z,14.02
2022-09-01T07:07:00.128Z,14.24
2022-09-01T07:09:48.090Z,14.54
2022-09-01T07:17:56.611Z,15.23
2022-09-01T07:20:27.561Z,15.37
2022-09-01T07:23:05.509Z,15.50
2022-09-01T07:26:00.436Z,15.76
2022-09-01T07:28:36.049Z,15.81
2022-09-01T07:33:55.797Z,16.08
2022-09-01T07:45:27.874Z,16.83
2022-09-01T07:47:55.549Z,16.81
2022-09-01T07:51:34.381Z,17.13
2022-09-01T07:53:12.594Z,17.30
2022-09-01T07:55:42.182Z,17.28
2022-09-01T07:58:11.793Z,17.52
2022-09-01T08:00:46.161Z,17.56
2022-09-01T08:03:14.004Z,17.69
2022-09-01T08:05:41.044Z,17.96
2022-09-01T08:08:18.583Z,18.01
2022-09-01T08:10:48.980Z,18.06
2022-09-01T08:13:16.624Z,17.89
2022-09-01T08:18:47.964Z,18.07
2022-09-01T08:21:16.866Z,17.91
2022-09-01T08:23:44.346Z,17.86
2022-09-01T08:26:13.671Z,17.78
2022-09-01T08:28:45.861Z,17.73
2022-09-01T08:31:15.958Z,17.74
2022-09-01T08:33:44.124Z,17.70
2022-09-01T08:36:13.153Z,17.62
2022-09-01T08:38:40.821Z,17.51
2022-09-01T08:41:35.480Z,17.57
2022-09-01T08:44:14.813Z,17.63
2022-09-01T08:46:43.094Z,17.69
2022-09-01T08:49:25.634Z,17.71
2022-09-01T08:52:00.731Z,17.68
2022-09-01T08:55:00.564Z,17.66
2022-09-01T08:57:32.873Z,17.74
2022-09-01T08:59:59.785Z,17.77
2022-09-01T09:02:51.522Z,17.92
2022-09-01T09:05:30.170Z,18.14
2022-09-01T09:08:33.962Z,18.07
2022-09-01T09:11:27.398Z,18.09
2022-09-01T09:14:00.178Z,18.21
2022-09-01T09:16:43.202Z,18.33
2022-09-01T09:19:36.108Z,18.37
2022-09-01T09:22:07.056Z,18.42
2022-09-01T09:25:03.214Z,18.46
2022-09-01T09:27:42.446Z,18.54
2022-09-01T09:30:12.873Z,18.72
2022-09-01T09:35:44.205Z,18.77
2022-09-01T09:38:18.919Z,18.78
2022-09-01T09:41:25.620Z,18.99
2022-09-01T09:44:14.702Z,19.13
2022-09-01T09:46:44.372Z,19.27
2022-09-01T09:49:10.984Z,19.42
2022-09-01T09:51:40.600Z,19.46
2022-09-01T09:54:18.824Z,19.43
2022-09-01T09:56:46.496Z,19.56
2022-09-01T09:59:39.548Z,19.55
2022-09-01T10:02:23.194Z,19.74
2022-09-01T10:04:56.176Z,19.74
2022-09-01T10:07:34.607Z,19.77
2022-09-01T10:10:27.413Z,19.83
2022-09-01T10:12:55.579Z,20.04
2022-09-01T10:15:26.177Z,20.06
2022-09-01T10:18:19.693Z,20.30
2022-09-01T10:20:49.082Z,20.43
2022-09-01T10:23:15.751Z,20.25
2022-09-01T10:25:44.504Z,20.11
2022-09-01T10:28:20.824Z,20.07
2022-09-01T10:30:48.372Z,20.06
2022-09-01T10:33:21.001Z,20.08
2022-09-01T10:35:53.918Z,20.20
2022-09-01T10:38:28.793Z,20.18
2022-09-01T10:41:07.910Z,20.38
2022-09-01T10:43:45.127Z,20.47
2022-09-01T10:46:38.573Z,20.30
2022-09-01T10:49:25.243Z,20.23
2022-09-01T10:51:57.060Z,20.35
2022-09-01T10:54:55.825Z,20.35
2022-09-01T10:57:42.901Z,20.30
2022-09-01T11:00:37.322Z,20.12
2022-09-01T11:06:17.711Z,20.20
2022-09-01T11:08:59.015Z,20.06
2022-09-01T11:11:44.900Z,20.18
2022-09-01T11:14:26.853Z,20.03
2022-09-01T11:17:39.562Z,20.45
2022-09-01T11:20:10.941Z,20.57
2022-09-01T11:22:43.615Z,20.71
2022-09-01T11:25:39.676Z,20.66
2022-09-01T11:28:08.570Z,20.49
2022-09-01T11:30:41.868Z,20.85
2022-09-01T11:33:11.456Z,21.12
2022-09-01T11:35:38.010Z,21.13
2022-09-01T11:38:07.844Z,21.46
2022-09-01T11:40:36.860Z,21.81
2022-09-01T11:43:30.202Z,21.58
2022-09-01T11:46:15.214Z,21.91
2022-09-01T11:48:47.108Z,22.16
2022-09-01T11:51:18.623Z,21.92
2022-09-01T11:53:45.261Z,22.05
2022-09-01T11:56:24.737Z,22.21
2022-09-01T11:58:51.561Z,22.22
2022-09-01T12:01:30.955Z,22.01
2022-09-01T12:03:58.908Z,22.07
2022-09-01T12:06:29.499Z,22.42
2022-09-01T12:09:02.318Z,22.45
2022-09-01T12:11:32.149Z,22.25
2022-09-01T12:14:02.286Z,23.15
2022-09-01T12:16:34.916Z,23.86
2022-09-01T12:19:02.162Z,24.12
2022-09-01T12:21:34.905Z,23.22
2022-09-01T12:24:34.142Z,22.92
2022-09-01T12:27:01.316Z,22.88
2022-09-01T12:29:32.132Z,22.85
2022-09-01T12:32:00.354Z,23.39
2022-09-01T12:34:44.963Z,22.75
2022-09-01T12:37:14.494Z,22.58
2022-09-01T12:39:46.636Z,22.89
2022-09-01T12:42:25.506Z,23.62
2022-09-01T12:44:57.960Z,24.09
2022-09-01T12:47:36.734Z,23.15
2022-09-01T12:50:29.719Z,22.81
2022-09-01T12:52:58.368Z,22.61
2022-09-01T12:58:25.628Z,22.33
2022-09-01T13:00:55.788Z,22.87
2022-09-01T13:03:23.358Z,23.11
2022-09-01T13:05:52.882Z,23.15
2022-09-01T13:08:21.233Z,22.69
2022-09-01T13:10:53.907Z,23.35
2022-09-01T13:13:24.200Z,23.64
2022-09-01T13:15:57.596Z,23.85
2022-09-01T13:18:25.673Z,23.96
2022-09-01T13:20:53.956Z,24.13
2022-09-01T13:23:21.174Z,24.75
2022-09-01T13:25:48.192Z,24.71
2022-09-01T13:28:16.585Z,24.58
2022-09-01T13:31:28.599Z,24.91
2022-09-01T13:36:45.137Z,25.21
2022-09-01T13:39:13.425Z,25.32
2022-09-01T13:41:40.168Z,25.75
2022-09-01T13:44:06.997Z,25.15
2022-09-01T13:46:33.551Z,25.17
2022-09-01T13:49:04.325Z,25.74
2022-09-01T13:51:31.711Z,25.00
2022-09-01T13:53:58.656Z,25.34
2022-09-01T13:56:25.551Z,25.01
2022-09-01T13:58:52.093Z,25.14
2022-09-01T14:01:19.005Z,24.88
2022-09-01T14:03:50.043Z,24.52
2022-09-01T14:06:18.360Z,24.50
2022-09-01T14:08:44.925Z,24.92
2022-09-01T14:11:17.815Z,24.44
2022-09-01T14:13:45.895Z,24.59
2022-09-01T14:16:14.677Z,24.71
2022-09-01T14:18:42.847Z,25.06
2022-09-01T14:21:14.800Z,24.82
2022-09-01T14:23:43.801Z,25.14
2022-09-01T14:26:13.372Z,25.23
2022-09-01T14:28:41.951Z,25.27
2022-09-01T14:31:11.091Z,25.18
2022-09-01T14:33:39.343Z,25.23
2022-09-01T14:36:09.272Z,24.83
2022-09-01T14:38:38.868Z,24.69
2022-09-01T14:41:05.622Z,24.85
2022-09-01T14:43:33.095Z,24.69
2022-09-01T14:46:06.614Z,24.37
2022-09-01T14:48:34.355Z,24.48
2022-09-01T14:51:02.138Z,24.83
2022-09-01T14:53:30.061Z,24.70
2022-09-01T14:55:58.275Z,24.12
2022-09-01T14:58:26.422Z,23.98
2022-09-01T15:01:00.373Z,24.19
2022-09-01T15:03:34.647Z,23.84
2022-09-01T15:06:01.226Z,23.66
2022-09-01T15:08:27.818Z,23.90
2022-09-01T15:10:54.475Z,23.85
2022-09-01T15:13:21.152Z,23.69
2022-09-01T15:15:47.885Z,23.89
2022-09-01T15:18:14.657Z,23.86
2022-09-01T15:20:46.027Z,23.90
2022-09-01T15:23:20.638Z,23.68
2022-09-01T15:25:48.714Z,23.55
2022-09-01T15:28:15.370Z,23.59
2022-09-01T15:30:44.103Z,23.43
2022-09-01T15:33:15.693Z,23.59
2022-09-01T15:35:43.752Z,23.54
2022-09-01T15:38:10.433Z,23.56
2022-09-01T15:40:42.310Z,23.44
2022-09-01T15:43:09.720Z,23.29
2022-09-01T15:45:36.339Z,23.07
2022-09-01T15:48:03.110Z,22.96
2022-09-01T15:50:29.803Z,22.99
2022-09-01T15:53:01.600Z,22.92
2022-09-01T15:55:42.871Z,22.95
2022-09-01T15:58:12.896Z,22.57
2022-09-01T16:00:40.650Z,22.66
2022-09-01T16:03:08.259Z,22.47
2022-09-01T16:05:37.749Z,22.55
2022-09-01T16:08:09.546Z,22.35
2022-09-01T16:10:39.891Z,22.14
2022-09-01T16:13:07.204Z,22.10
2022-09-01T16:15:35.303Z,22.12
2022-09-01T16:18:25.563Z,22.03
2022-09-01T16:21:14.767Z,21.97
2022-09-01T16:23:43.401Z,21.77
2022-09-01T16:26:12.102Z,21.65
2022-09-01T16:28:39.127Z,21.69
2022-09-01T16:31:13.854Z,21.65
2022-09-01T16:33:48.128Z,21.45
2022-09-01T16:36:59.752Z,21.52
2022-09-01T16:39:48.183Z,21.52
2022-09-01T16:42:40.897Z,21.40
2022-09-01T16:45:22.737Z,21.38
2022-09-01T16:47:49.205Z,21.32
2022-09-01T16:50:39.537Z,21.22
2022-09-01T16:53:15.219Z,21.14
2022-09-01T16:56:09.529Z,21.07
2022-09-01T16:58:59.643Z,21.02
2022-09-01T17:01:39.486Z,21.04
2022-09-01T17:04:27.299Z,20.92
2022-09-01T17:07:04.048Z,20.90
2022-09-01T17:09:39.695Z,20.82
2022-09-01T17:12:23.622Z,20.79
2022-09-01T17:15:10.247Z,20.65
2022-09-01T17:17:44.767Z,20.66
2022-09-01T17:20:13.041Z,20.54
2022-09-01T17:22:44.266Z,20.51
2022-09-01T17:25:22.211Z,20.42
2022-09-01T17:27:54.272Z,20.38
2022-09-01T17:30:22.275Z,20.29
2022-09-01T17:32:50.002Z,20.28
2022-09-01T17:35:37.622Z,20.20
2022-09-01T17:38:06.897Z,20.19
2022-09-01T17:40:55.671Z,20.00
2022-09-01T17:43:45.772Z,19.92
2022-09-01T17:46:45.364Z,19.86
2022-09-01T17:49:34.785Z,19.79
2022-09-01T17:52:15.247Z,19.73
2022-09-01T17:55:09.374Z,19.64
2022-09-01T17:57:42.908Z,19.57
2022-09-01T18:00:23.710Z,19.43
2022-09-01T18:03:19.052Z,19.30
2022-09-01T18:05:58.334Z,19.20
2022-09-01T18:08:40.326Z,19.13
2022-09-01T18:11:23.093Z,19.04
2022-09-01T18:13:58.738Z,18.95
2022-09-01T18:16:30.368Z,18.89
2022-09-01T18:19:06.746Z,18.88
2022-09-01T18:21:38.174Z,18.81
2022-09-01T18:24:22.193Z,18.77
2022-09-01T18:26:51.329Z,18.76
2022-09-01T18:29:18.065Z,18.61
2022-09-01T18:31:56.696Z,18.59
2022-09-01T18:34:51.217Z,18.48
2022-09-01T18:37:59.771Z,18.38
2022-09-01T18:40:26.444Z,18.39
2022-09-01T18:43:12.436Z,18.37
2022-09-01T18:45:46.808Z,18.34
2022-09-01T18:48:24.990Z,18.27
2022-09-01T18:50:59.782Z,18.23
2022-09-01T18:53:41.564Z,18.19
2022-09-01T18:56:20.972Z,18.11
2022-09-01T18:58:53.660Z,17.99
2022-09-01T19:01:33.478Z,17.93
2022-09-01T19:04:23.363Z,17.88
2022-09-01T19:07:19.289Z,17.79
2022-09-01T19:09:56.252Z,17.70
2022-09-01T19:12:35.764Z,17.67
2022-09-01T19:15:10.115Z,17.65
2022-09-01T19:17:44.602Z,17.58
2022-09-01T19:20:16.818Z,17.53
2022-09-01T19:22:54.353Z,17.51
2022-09-01T19:25:36.837Z,17.48
2022-09-01T19:28:20.346Z,17.41
2022-09-01T19:31:00.220Z,17.42
2022-09-01T19:33:34.712Z,17.39
2022-09-01T19:36:09.049Z,17.35
2022-09-01T19:38:37.378Z,17.29
2022-09-01T19:41:08.868Z,17.27
2022-09-01T19:43:40.312Z,17.22
2022-09-01T19:46:31.320Z,17.18
2022-09-01T19:49:12.440Z,17.12
2022-09-01T19:51:51.515Z,16.99
2022-09-01T19:54:27.768Z,16.81
2022-09-01T19:57:17.827Z,16.69
2022-09-01T20:00:02.813Z,16.61
2022-09-01T20:03:01.179Z,16.53
2022-09-01T20:05:40.191Z,16.38
2022-09-01T20:08:14.597Z,16.29
2022-09-01T20:10:56.557Z,16.23
2022-09-01T20:13:35.427Z,16.17
2022-09-01T20:16:14.496Z,16.09
2022-09-01T20:19:08.641Z,16.03
2022-09-01T20:21:40.059Z,16.03
2022-09-01T20:24:14.347Z,15.95
2022-09-01T20:26:52.524Z,15.92
2022-09-01T20:29:29.827Z,15.85
2022-09-01T20:31:59.732Z,15.84
2022-09-01T20:34:42.578Z,15.77
2022-09-01T20:37:28.948Z,15.69
2022-09-01T20:40:04.903Z,15.64
2022-09-01T20:42:46.946Z,15.59
2022-09-01T20:45:24.839Z,15.50
2022-09-01T20:47:54.529Z,15.51
2022-09-01T20:50:42.675Z,15.45
2022-09-01T20:53:28.517Z,15.36
2022-09-01T20:56:07.757Z,15.30
2022-09-01T20:58:46.092Z,15.19
2022-09-01T21:01:19.367Z,15.10
2022-09-01T21:04:00.259Z,15.02
2022-09-01T21:06:54.529Z,14.92
2022-09-01T21:09:30.037Z,14.89
2022-09-01T21:12:02.465Z,14.86
2022-09-01T21:14:35.383Z,14.81
2022-09-01T21:17:24.831Z,14.88
2022-09-01T21:20:02.790Z,14.89
2022-09-01T21:22:29.769Z,14.88
2022-09-01T21:24:56.317Z,14.85
2022-09-01T21:27:31.246Z,14.89
2022-09-01T21:29:59.967Z,14.85
2022-09-01T21:32:32.117Z,14.80
2022-09-01T21:34:59.469Z,14.78
2022-09-01T21:37:27.557Z,14.74
2022-09-01T21:39:55.200Z,14.67
2022-09-01T21:42:33.406Z,14.54
2022-09-01T21:45:02.028Z,14.48
2022-09-01T21:47:29.156Z,14.42
2022-09-01T21:49:55.806Z,14.34
2022-09-01T21:52:22.346Z,14.28
2022-09-01T21:54:48.898Z,14.18
2022-09-01T21:57:15.705Z,14.11
2022-09-01T21:59:42.283Z,13.99
2022-09-01T22:02:08.847Z,13.95
2022-09-01T22:04:37.091Z,13.89
2022-09-01T22:07:05.894Z,13.83
2022-09-01T22:09:32.715Z,13.76
2022-09-01T22:11:59.301Z,13.69
2022-09-01T22:14:27.856Z,13.63
2022-09-01T22:16:54.512Z,13.54
2022-09-01T22:19:21.289Z,13.48
2022-09-01T22:21:48.089Z,13.42
2022-09-01T22:24:14.814Z,13.39
2022-09-01T22:26:48.133Z,13.32
2022-09-01T22:29:17.438Z,13.27
2022-09-01T22:31:44.600Z,13.23
2022-09-01T22:34:11.187Z,13.17
2022-09-01T22:36:42.101Z,13.15
2022-09-01T22:39:11.125Z,13.10
2022-09-01T22:41:39.369Z,13.03
2022-09-01T22:44:07.080Z,12.98
2022-09-01T22:46:35.560Z,12.91
2022-09-01T22:49:03.210Z,12.85
2022-09-01T22:51:30.972Z,12.79
2022-09-01T22:53:57.562Z,12.75
2022-09-01T22:56:30.827Z,12.74
2022-09-01T22:59:01.309Z,12.67
2022-09-01T23:01:32.951Z,12.64
2022-09-01T23:04:01.164Z,12.60
2022-09-01T23:06:29.962Z,12.57
2022-09-01T23:08:58.453Z,12.50
2022-09-01T23:11:26.067Z,12.47
2022-09-01T23:13:53.056Z,12.42
2022-09-01T23:16:21.086Z,12.37
2022-09-01T23:18:48.832Z,12.32
2022-09-01T23:21:18.362Z,12.30
2022-09-01T23:23:44.998Z,12.26
2022-09-01T23:26:14.461Z,12.25
2022-09-01T23:28:42.354Z,12.23
2022-09-01T23:31:24.660Z,12.15
2022-09-01T23:33:52.209Z,12.08
2022-09-01T23:36:22.974Z,12.03
2022-09-01T23:38:50.888Z,11.99
2022-09-01T23:41:23.200Z,11.92
2022-09-01T23:43:51.753Z,11.87
2022-09-01T23:46:24.505Z,11.83
2022-09-01T23:48:51.172Z,11.78
2022-09-01T23:51:18.266Z,11.75
2022-09-01T23:53:47.245Z,11.73
2022-09-01T23:56:16.958Z,11.69
2022-09-01T23:58:43.831Z,11.67
